sensor_id;sensor_type;location;lat;lon;timestamp;temperature;humidity
16838;DHT22;19510;54.486;9.046;2022-07-23T06:43:06;16.10;99.90
16838;DHT22;19510;54.486;9.046;2022-07-23T06:45:36;16.10;99.90
16838;DHT22;19510;54.486;9.046;2022-07-23T06:48:02;16.10;99.90
16838;DHT22;19510;54.486;9.046;2022-07-23T06:50:28;16.20;99.90
16838;DHT22;19510;54.486;9.046;2022-07-23T06:52:57;16.20;99.90
16838;DHT22;19510;54.486;9.046;2022-07-23T06:55:27;16.20;99.90
16838;DHT22;19510;54.486;9.046;2022-07-23T06:57:53;16.20;99.90
16838;DHT22;19510;54.486;9.046;2022-07-23T07:00:20;16.30;99.90
16838;DHT22;19510;54.486;9.046;2022-07-23T07:02:48;16.30;99.90
16838;DHT22;19510;54.486;9.046;2022-07-23T07:05:19;16.30;99.90
16838;DHT22;19510;54.486;9.046;2022-07-23T07:07:45;16.30;99.90
16838;DHT22;19510;54.486;9.046;2022-07-23T07:10:18;16.30;99.90
16838;DHT22;19510;54.486;9.046;2022-07-23T07:12:44;16.20;99.90
16838;DHT22;19510;54.486;9.046;2022-07-23T07:15:13;16.20;99.90
16838;DHT22;19510;54.486;9.046;2022-07-23T07:17:41;16.20;99.90
16838;DHT22;19510;54.486;9.046;2022-07-23T07:20:08;16.20;99.90
16838;DHT22;19510;54.486;9.046;2022-07-23T07:22:36;16.20;99.90
16838;DHT22;19510;54.486;9.046;2022-07-23T07:25:05;16.10;99.90
16838;DHT22;19510;54.486;9.046;2022-07-23T07:27:31;16.10;99.90
16838;DHT22;19510;54.486;9.046;2022-07-23T07:29:59;16.10;99.90
16838;DHT22;19510;54.486;9.046;2022-07-23T07:32:25;16.10;99.90
16838;DHT22;19510;54.486;9.046;2022-07-23T07:34:53;15.90;99.90
16838;DHT22;19510;54.486;9.046;2022-07-23T07:37:21;15.90;99.90
16838;DHT22;19510;54.486;9.046;2022-07-23T07:39:47;15.90;99.90
16838;DHT22;19510;54.486;9.046;2022-07-23T07:42:18;15.90;99.90
16838;DHT22;19510;54.486;9.046;2022-07-23T07:44:48;15.90;99.90
16838;DHT22;19510;54.486;9.046;2022-07-23T07:47:16;15.90;99.90
16838;DHT22;19510;54.486;9.046;2022-07-23T07:49:42;15.90;99.90
16838;DHT22;19510;54.486;9.046;2022-07-23T07:52:09;15.90;99.90
16838;DHT22;19510;54.486;9.046;2022-07-23T07:54:37;15.90;99.90
16838;DHT22;19510;54.486;9.046;2022-07-23T07:57:03;15.90;99.90
16838;DHT22;19510;54.486;9.046;2022-07-23T07:59:31;15.90;99.90
16838;DHT22;19510;54.486;9.046;2022-07-23T08:01:57;16.00;99.90
16838;DHT22;19510;54.486;9.046;2022-07-23T08:04:25;16.10;99.90
16838;DHT22;19510;54.486;9.046;2022-07-23T08:06:51;16.20;99.90
16838;DHT22;19510;54.486;9.046;2022-07-23T08:09:17;16.10;99.90
16838;DHT22;19510;54.486;9.046;2022-07-23T08:11:44;16.10;99.90
16838;DHT22;19510;54.486;9.046;2022-07-23T08:14:12;16.20;99.90
16838;DHT22;19510;54.486;9.046;2022-07-23T08:16:40;16.30;99.90
16838;DHT22;19510;54.486;9.046;2022-07-23T08:19:08;16.30;99.90
16838;DHT22;19510;54.486;9.046;2022-07-23T08:21:34;16.40;99.90
16838;DHT22;19510;54.486;9.046;2022-07-23T08:24:01;16.50;99.90
16838;DHT22;19510;54.486;9.046;2022-07-23T08:26:29;16.60;99.90
16838;DHT22;19510;54.486;9.046;2022-07-23T08:28:54;16.70;99.90
16838;DHT22;19510;54.486;9.046;2022-07-23T08:31:20;16.60;99.90
16838;DHT22;19510;54.486;9.046;2022-07-23T08:33:48;16.70;99.90
16838;DHT22;19510;54.486;9.046;2022-07-23T08:36:17;16.80;99.90
16838;DHT22;19510;54.486;9.046;2022-07-23T08:38:43;16.90;99.90
16838;DHT22;19510;54.486;9.046;2022-07-23T08:41:09;17.00;99.90
16838;DHT22;19510;54.486;9.046;2022-07-23T08:43:38;17.10;99.90
16838;DHT22;19510;54.486;9.046;2022-07-23T08:46:06;17.20;99.90
16838;DHT22;19510;54.486;9.046;2022-07-23T08:48:34;17.30;99.90
16838;DHT22;19510;54.486;9.046;2022-07-23T08:51:03;17.30;99.90
16838;DHT22;19510;54.486;9.046;2022-07-23T08:53:31;17.40;99.90
16838;DHT22;19510;54.486;9.046;2022-07-23T08:55:59;17.50;99.90
16838;DHT22;19510;54.486;9.046;2022-07-23T08:58:27;17.50;99.90
16838;DHT22;19510;54.486;9.046;2022-07-23T09:00:56;17.50;99.90
16838;DHT22;19510;54.486;9.046;2022-07-23T09:03:30;17.50;99.90
16838;DHT22;19510;54.486;9.046;2022-07-23T09:05:59;17.50;99.90
16838;DHT22;19510;54.486;9.046;2022-07-23T09:08:37;17.50;99.90
16838;DHT22;19510;54.486;9.046;2022-07-23T09:11:05;17.50;99.90
16838;DHT22;19510;54.486;9.046;2022-07-23T09:13:45;17.50;99.90
16838;DHT22;19510;54.486;9.046;2022-07-23T09:16:19;17.50;99.90
16838;DHT22;19510;54.486;9.046;2022-07-23T09:21:29;17.20;99.90
16838;DHT22;19510;54.486;9.046;2022-07-23T09:24:09;17.30;99.90
16838;DHT22;19510;54.486;9.046;2022-07-23T09:26:40;17.30;99.90
16838;DHT22;19510;54.486;9.046;2022-07-23T09:29:24;17.30;99.90
16838;DHT22;19510;54.486;9.046;2022-07-23T09:32:00;17.40;99.90
16838;DHT22;19510;54.486;9.046;2022-07-23T09:34:32;17.70;99.90
16838;DHT22;19510;54.486;9.046;2022-07-23T09:37:21;17.80;99.90
16838;DHT22;19510;54.486;9.046;2022-07-23T09:39:51;18.00;99.90
16838;DHT22;19510;54.486;9.046;2022-07-23T09:42:33;18.10;99.90
16838;DHT22;19510;54.486;9.046;2022-07-23T09:45:01;18.00;99.90
16838;DHT22;19510;54.486;9.046;2022-07-23T09:47:31;17.90;99.90
16838;DHT22;19510;54.486;9.046;2022-07-23T09:50:13;17.80;99.90
16838;DHT22;19510;54.486;9.046;2022-07-23T09:52:46;17.70;99.90
16838;DHT22;19510;54.486;9.046;2022-07-23T09:55:18;17.50;99.90
16838;DHT22;19510;54.486;9.046;2022-07-23T09:57:48;17.60;99.90
16838;DHT22;19510;54.486;9.046;2022-07-23T10:00:19;17.50;99.90
16838;DHT22;19510;54.486;9.046;2022-07-23T10:02:46;17.40;99.90
16838;DHT22;19510;54.486;9.046;2022-07-23T10:05:12;17.40;99.90
16838;DHT22;19510;54.486;9.046;2022-07-23T10:07:42;17.40;99.90
16838;DHT22;19510;54.486;9.046;2022-07-23T10:10:15;17.40;99.90
16838;DHT22;19510;54.486;9.046;2022-07-23T10:12:43;17.30;99.90
16838;DHT22;19510;54.486;9.046;2022-07-23T10:15:30;17.30;99.90
16838;DHT22;19510;54.486;9.046;2022-07-23T10:17:56;17.20;99.90
16838;DHT22;19510;54.486;9.046;2022-07-23T10:20:21;17.30;99.90
16838;DHT22;19510;54.486;9.046;2022-07-23T10:23:07;17.40;99.90
16838;DHT22;19510;54.486;9.046;2022-07-23T10:28:30;17.40;99.90
16838;DHT22;19510;54.486;9.046;2022-07-23T10:31:06;17.60;99.90
16838;DHT22;19510;54.486;9.046;2022-07-23T10:36:32;18.00;99.90
16838;DHT22;19510;54.486;9.046;2022-07-23T10:39:13;18.20;99.90
16838;DHT22;19510;54.486;9.046;2022-07-23T10:41:43;18.20;99.90
16838;DHT22;19510;54.486;9.046;2022-07-23T10:44:15;18.10;99.90
16838;DHT22;19510;54.486;9.046;2022-07-23T10:49:35;18.20;99.90
16838;DHT22;19510;54.486;9.046;2022-07-23T10:54:41;18.00;99.90
16838;DHT22;19510;54.486;9.046;2022-07-23T10:57:10;17.80;99.90
16838;DHT22;19510;54.486;9.046;2022-07-23T11:02:46;17.60;99.90
16838;DHT22;19510;54.486;9.046;2022-07-23T11:05:17;17.60;99.90
16838;DHT22;19510;54.486;9.046;2022-07-23T11:18:59;17.90;99.90
16838;DHT22;19510;54.486;9.046;2022-07-23T11:24:09;18.00;99.90
16838;DHT22;19510;54.486;9.046;2022-07-23T11:32:07;18.20;99.90
16838;DHT22;19510;54.486;9.046;2022-07-23T11:34:42;18.20;99.90
16838;DHT22;19510;54.486;9.046;2022-07-23T11:37:26;18.10;99.90
16838;DHT22;19510;54.486;9.046;2022-07-23T11:39:59;18.20;99.90
16838;DHT22;19510;54.486;9.046;2022-07-23T11:42:28;18.10;99.90
16838;DHT22;19510;54.486;9.046;2022-07-23T11:44:53;18.20;99.90
16838;DHT22;19510;54.486;9.046;2022-07-23T11:47:26;18.20;99.90
16838;DHT22;19510;54.486;9.046;2022-07-23T11:50:04;18.30;99.90
16838;DHT22;19510;54.486;9.046;2022-07-23T11:52:30;18.40;99.90
16838;DHT22;19510;54.486;9.046;2022-07-23T11:55:09;18.50;99.90
16838;DHT22;19510;54.486;9.046;2022-07-23T11:57:40;18.50;99.90
16838;DHT22;19510;54.486;9.046;2022-07-23T12:02:40;18.40;99.90
16838;DHT22;19510;54.486;9.046;2022-07-23T12:05:07;18.30;99.90
16838;DHT22;19510;54.486;9.046;2022-07-23T12:07:42;18.20;99.90
16838;DHT22;19510;54.486;9.046;2022-07-23T12:10:29;18.30;99.90
16838;DHT22;19510;54.486;9.046;2022-07-23T12:13:01;18.10;99.90
16838;DHT22;19510;54.486;9.046;2022-07-23T12:15:34;18.20;99.90
16838;DHT22;19510;54.486;9.046;2022-07-23T12:18:04;18.20;99.90
16838;DHT22;19510;54.486;9.046;2022-07-23T12:20:38;18.20;99.90
16838;DHT22;19510;54.486;9.046;2022-07-23T12:23:11;18.30;99.90
16838;DHT22;19510;54.486;9.046;2022-07-23T12:25:41;18.40;99.90
16838;DHT22;19510;54.486;9.046;2022-07-23T12:28:16;18.50;99.90
16838;DHT22;19510;54.486;9.046;2022-07-23T12:30:51;18.60;99.90
16838;DHT22;19510;54.486;9.046;2022-07-23T12:33:33;18.70;99.90
16838;DHT22;19510;54.486;9.046;2022-07-23T12:36:03;18.80;99.90
16838;DHT22;19510;54.486;9.046;2022-07-23T12:38:46;18.80;99.90
16838;DHT22;19510;54.486;9.046;2022-07-23T12:41:12;18.70;99.90
16838;DHT22;19510;54.486;9.046;2022-07-23T12:43:40;18.70;99.90
16838;DHT22;19510;54.486;9.046;2022-07-23T12:46:18;18.60;99.90
16838;DHT22;19510;54.486;9.046;2022-07-23T12:48:51;18.50;99.90
16838;DHT22;19510;54.486;9.046;2022-07-23T12:51:25;18.50;99.90
16838;DHT22;19510;54.486;9.046;2022-07-23T12:53:58;18.50;99.90
16838;DHT22;19510;54.486;9.046;2022-07-23T12:56:29;18.40;99.90
16838;DHT22;19510;54.486;9.046;2022-07-23T12:59:04;18.30;99.90
16838;DHT22;19510;54.486;9.046;2022-07-23T13:01:42;18.40;99.90
16838;DHT22;19510;54.486;9.046;2022-07-23T13:04:10;18.30;99.90
16838;DHT22;19510;54.486;9.046;2022-07-23T13:06:45;18.40;99.90
16838;DHT22;19510;54.486;9.046;2022-07-23T13:09:19;18.40;99.90
16838;DHT22;19510;54.486;9.046;2022-07-23T13:11:47;18.40;99.90
16838;DHT22;19510;54.486;9.046;2022-07-23T13:14:14;18.50;99.90
16838;DHT22;19510;54.486;9.046;2022-07-23T13:16:46;18.60;99.90
16838;DHT22;19510;54.486;9.046;2022-07-23T13:19:12;18.80;99.90
16838;DHT22;19510;54.486;9.046;2022-07-23T13:21:39;18.80;99.90
16838;DHT22;19510;54.486;9.046;2022-07-23T13:24:09;18.90;99.90
16838;DHT22;19510;54.486;9.046;2022-07-23T13:26:36;18.90;99.90
16838;DHT22;19510;54.486;9.046;2022-07-23T13:29:05;19.00;99.90
16838;DHT22;19510;54.486;9.046;2022-07-23T13:31:33;19.10;99.90
16838;DHT22;19510;54.486;9.046;2022-07-23T13:33:59;19.50;99.90
16838;DHT22;19510;54.486;9.046;2022-07-23T13:36:27;19.50;99.90
16838;DHT22;19510;54.486;9.046;2022-07-23T13:38:55;19.50;99.90
16838;DHT22;19510;54.486;9.046;2022-07-23T13:41:23;19.50;99.90
16838;DHT22;19510;54.486;9.046;2022-07-23T13:43:49;19.60;99.90
16838;DHT22;19510;54.486;9.046;2022-07-23T13:46:15;19.70;99.90
16838;DHT22;19510;54.486;9.046;2022-07-23T13:48:41;19.70;99.90
16838;DHT22;19510;54.486;9.046;2022-07-23T13:51:07;19.50;99.90
16838;DHT22;19510;54.486;9.046;2022-07-23T13:53:33;19.40;99.90
16838;DHT22;19510;54.486;9.046;2022-07-23T13:55:59;19.40;99.90
16838;DHT22;19510;54.486;9.046;2022-07-23T13:58:27;19.30;99.90
16838;DHT22;19510;54.486;9.046;2022-07-23T14:00:53;19.50;99.90
16838;DHT22;19510;54.486;9.046;2022-07-23T14:03:21;19.50;99.90
16838;DHT22;19510;54.486;9.046;2022-07-23T14:05:51;19.60;99.90
16838;DHT22;19510;54.486;9.046;2022-07-23T14:08:20;19.70;99.90
16838;DHT22;19510;54.486;9.046;2022-07-23T14:10:50;19.80;99.90
16838;DHT22;19510;54.486;9.046;2022-07-23T14:13:16;19.80;99.90
16838;DHT22;19510;54.486;9.046;2022-07-23T14:15:46;19.90;99.90
16838;DHT22;19510;54.486;9.046;2022-07-23T14:18:17;20.00;99.90
16838;DHT22;19510;54.486;9.046;2022-07-23T14:20:51;20.00;99.90
16838;DHT22;19510;54.486;9.046;2022-07-23T14:23:17;19.90;99.90
16838;DHT22;19510;54.486;9.046;2022-07-23T14:25:45;19.90;99.90
16838;DHT22;19510;54.486;9.046;2022-07-23T14:28:10;19.80;99.90
16838;DHT22;19510;54.486;9.046;2022-07-23T14:30:42;19.70;99.90
16838;DHT22;19510;54.486;9.046;2022-07-23T14:33:09;19.60;99.90
16838;DHT22;19510;54.486;9.046;2022-07-23T14:35:39;19.50;99.90
16838;DHT22;19510;54.486;9.046;2022-07-23T14:38:04;19.50;99.90
16838;DHT22;19510;54.486;9.046;2022-07-23T14:40:30;19.60;99.90
16838;DHT22;19510;54.486;9.046;2022-07-23T14:42:56;19.80;99.90
16838;DHT22;19510;54.486;9.046;2022-07-23T14:45:26;20.10;99.90
16838;DHT22;19510;54.486;9.046;2022-07-23T14:47:56;20.40;99.90
16838;DHT22;19510;54.486;9.046;2022-07-23T14:50:24;20.80;99.90
16838;DHT22;19510;54.486;9.046;2022-07-23T14:52:53;20.60;99.90
16838;DHT22;19510;54.486;9.046;2022-07-23T14:55:18;20.60;99.90
16838;DHT22;19510;54.486;9.046;2022-07-23T14:57:45;20.40;99.90
16838;DHT22;19510;54.486;9.046;2022-07-23T15:00:14;20.10;99.90
16838;DHT22;19510;54.486;9.046;2022-07-23T15:02:42;19.80;99.90
16838;DHT22;19510;54.486;9.046;2022-07-23T15:05:10;19.70;99.90
16838;DHT22;19510;54.486;9.046;2022-07-23T15:07:38;19.60;99.90
16838;DHT22;19510;54.486;9.046;2022-07-23T15:10:04;19.50;99.90
16838;DHT22;19510;54.486;9.046;2022-07-23T15:12:30;19.40;99.90
16838;DHT22;19510;54.486;9.046;2022-07-23T15:15:01;19.40;99.90
16838;DHT22;19510;54.486;9.046;2022-07-23T15:17:27;19.40;99.90
16838;DHT22;19510;54.486;9.046;2022-07-23T15:19:53;19.60;99.90
16838;DHT22;19510;54.486;9.046;2022-07-23T15:22:18;19.70;99.90
16838;DHT22;19510;54.486;9.046;2022-07-23T15:24:49;19.60;99.90
16838;DHT22;19510;54.486;9.046;2022-07-23T15:27:17;19.70;99.90
16838;DHT22;19510;54.486;9.046;2022-07-23T15:29:44;19.70;99.90
16838;DHT22;19510;54.486;9.046;2022-07-23T15:32:10;19.50;99.90
16838;DHT22;19510;54.486;9.046;2022-07-23T15:34:38;19.30;99.90
16838;DHT22;19510;54.486;9.046;2022-07-23T15:37:03;19.30;99.90
16838;DHT22;19510;54.486;9.046;2022-07-23T15:39:31;19.20;99.90
16838;DHT22;19510;54.486;9.046;2022-07-23T15:41:59;19.20;99.90
16838;DHT22;19510;54.486;9.046;2022-07-23T15:44:25;19.20;99.90
16838;DHT22;19510;54.486;9.046;2022-07-23T15:46:51;19.10;99.90
16838;DHT22;19510;54.486;9.046;2022-07-23T15:49:21;19.20;99.90
16838;DHT22;19510;54.486;9.046;2022-07-23T15:51:47;19.20;99.90
16838;DHT22;19510;54.486;9.046;2022-07-23T15:54:15;19.10;99.90
16838;DHT22;19510;54.486;9.046;2022-07-23T15:56:41;19.10;99.90
16838;DHT22;19510;54.486;9.046;2022-07-23T15:59:08;19.20;99.90
16838;DHT22;19510;54.486;9.046;2022-07-23T16:01:34;19.30;99.90
16838;DHT22;19510;54.486;9.046;2022-07-23T16:04:02;19.40;99.90
16838;DHT22;19510;54.486;9.046;2022-07-23T16:06:28;19.40;99.90
16838;DHT22;19510;54.486;9.046;2022-07-23T16:08:56;19.40;99.90
16838;DHT22;19510;54.486;9.046;2022-07-23T16:11:22;19.50;99.90
16838;DHT22;19510;54.486;9.046;2022-07-23T16:13:52;19.50;99.90
16838;DHT22;19510;54.486;9.046;2022-07-23T16:16:20;19.50;99.90
16838;DHT22;19510;54.486;9.046;2022-07-23T16:18:47;19.50;99.90
16838;DHT22;19510;54.486;9.046;2022-07-23T16:21:18;19.70;99.90
16838;DHT22;19510;54.486;9.046;2022-07-23T16:23:46;19.50;99.90
16838;DHT22;19510;54.486;9.046;2022-07-23T16:26:12;19.60;99.90
16838;DHT22;19510;54.486;9.046;2022-07-23T16:28:43;19.60;99.90
16838;DHT22;19510;54.486;9.046;2022-07-23T16:31:09;19.40;99.90
16838;DHT22;19510;54.486;9.046;2022-07-23T16:33:34;19.50;99.90
16838;DHT22;19510;54.486;9.046;2022-07-23T16:36:04;19.40;99.90
16838;DHT22;19510;54.486;9.046;2022-07-23T16:38:47;19.30;99.90
16838;DHT22;19510;54.486;9.046;2022-07-23T16:41:18;19.40;99.90
16838;DHT22;19510;54.486;9.046;2022-07-23T16:43:43;19.50;99.90
16838;DHT22;19510;54.486;9.046;2022-07-23T16:46:19;19.50;99.90
16838;DHT22;19510;54.486;9.046;2022-07-23T16:49:13;19.50;99.90
16838;DHT22;19510;54.486;9.046;2022-07-23T16:51:38;19.40;99.90
16838;DHT22;19510;54.486;9.046;2022-07-23T16:54:04;19.30;99.90
16838;DHT22;19510;54.486;9.046;2022-07-23T16:56:30;19.10;99.90
16838;DHT22;19510;54.486;9.046;2022-07-23T16:58:55;19.00;99.90
16838;DHT22;19510;54.486;9.046;2022-07-23T17:01:24;19.00;99.90
16838;DHT22;19510;54.486;9.046;2022-07-23T17:03:52;18.90;99.90
16838;DHT22;19510;54.486;9.046;2022-07-23T17:06:20;18.90;99.90
16838;DHT22;19510;54.486;9.046;2022-07-23T17:08:50;18.90;99.90
16838;DHT22;19510;54.486;9.046;2022-07-23T17:11:16;18.80;99.90
16838;DHT22;19510;54.486;9.046;2022-07-23T17:13:42;18.70;99.90
16838;DHT22;19510;54.486;9.046;2022-07-23T17:16:15;18.70;99.90
16838;DHT22;19510;54.486;9.046;2022-07-23T17:18:41;18.60;99.90
16838;DHT22;19510;54.486;9.046;2022-07-23T17:21:07;18.50;99.90
16838;DHT22;19510;54.486;9.046;2022-07-23T17:23:45;18.60;99.90
16838;DHT22;19510;54.486;9.046;2022-07-23T17:26:10;18.60;99.90
16838;DHT22;19510;54.486;9.046;2022-07-23T17:28:42;18.60;99.90
16838;DHT22;19510;54.486;9.046;2022-07-23T17:31:14;18.60;99.90
16838;DHT22;19510;54.486;9.046;2022-07-23T17:33:39;18.70;99.90
16838;DHT22;19510;54.486;9.046;2022-07-23T17:36:08;18.70;99.90
16838;DHT22;19510;54.486;9.046;2022-07-23T17:38:36;18.70;99.90
16838;DHT22;19510;54.486;9.046;2022-07-23T17:41:01;18.70;99.90
16838;DHT22;19510;54.486;9.046;2022-07-23T17:43:30;18.80;99.90
16838;DHT22;19510;54.486;9.046;2022-07-23T17:45:58;18.90;99.90
16838;DHT22;19510;54.486;9.046;2022-07-23T17:48:25;18.80;99.90
16838;DHT22;19510;54.486;9.046;2022-07-23T17:50:53;18.70;99.90
16838;DHT22;19510;54.486;9.046;2022-07-23T17:53:24;18.70;99.90
16838;DHT22;19510;54.486;9.046;2022-07-23T17:55:56;18.60;99.90
16838;DHT22;19510;54.486;9.046;2022-07-23T17:58:24;18.70;99.90
16838;DHT22;19510;54.486;9.046;2022-07-23T18:00:50;18.70;99.90
16838;DHT22;19510;54.486;9.046;2022-07-23T18:03:16;18.70;99.90
16838;DHT22;19510;54.486;9.046;2022-07-23T18:05:44;18.70;99.90
16838;DHT22;19510;54.486;9.046;2022-07-23T18:08:10;18.60;99.90
16838;DHT22;19510;54.486;9.046;2022-07-23T18:10:36;18.60;99.90
16838;DHT22;19510;54.486;9.046;2022-07-23T18:13:05;18.50;99.90
16838;DHT22;19510;54.486;9.046;2022-07-23T18:15:34;18.60;99.90
16838;DHT22;19510;54.486;9.046;2022-07-23T18:18:00;18.60;99.90
16838;DHT22;19510;54.486;9.046;2022-07-23T18:20:29;18.60;99.90
16838;DHT22;19510;54.486;9.046;2022-07-23T18:22:57;18.60;99.90
16838;DHT22;19510;54.486;9.046;2022-07-23T18:25:25;18.60;99.90
16838;DHT22;19510;54.486;9.046;2022-07-23T18:27:50;18.70;99.90
16838;DHT22;19510;54.486;9.046;2022-07-23T18:30:16;18.70;99.90
16838;DHT22;19510;54.486;9.046;2022-07-23T18:32:45;18.70;99.90
16838;DHT22;19510;54.486;9.046;2022-07-23T18:35:12;18.70;99.90
16838;DHT22;19510;54.486;9.046;2022-07-23T18:37:38;18.60;99.90
16838;DHT22;19510;54.486;9.046;2022-07-23T18:40:05;18.60;99.90
16838;DHT22;19510;54.486;9.046;2022-07-23T18:42:36;18.60;99.90
16838;DHT22;19510;54.486;9.046;2022-07-23T18:45:08;18.60;99.90
16838;DHT22;19510;54.486;9.046;2022-07-23T18:47:38;18.60;99.90
16838;DHT22;19510;54.486;9.046;2022-07-23T18:50:09;18.50;99.90
16838;DHT22;19510;54.486;9.046;2022-07-23T18:52:36;18.50;99.90
16838;DHT22;19510;54.486;9.046;2022-07-23T18:55:02;18.40;99.90
16838;DHT22;19510;54.486;9.046;2022-07-23T18:57:28;18.30;99.90
16838;DHT22;19510;54.486;9.046;2022-07-23T18:59:54;18.20;99.90
16838;DHT22;19510;54.486;9.046;2022-07-23T19:02:20;18.20;99.90
16838;DHT22;19510;54.486;9.046;2022-07-23T19:05:09;18.10;99.90
16838;DHT22;19510;54.486;9.046;2022-07-23T19:07:36;18.00;99.90
16838;DHT22;19510;54.486;9.046;2022-07-23T19:10:05;17.90;99.90
16838;DHT22;19510;54.486;9.046;2022-07-23T19:12:36;17.80;99.90
16838;DHT22;19510;54.486;9.046;2022-07-23T19:15:04;17.80;99.90
16838;DHT22;19510;54.486;9.046;2022-07-23T19:17:33;17.70;99.90
16838;DHT22;19510;54.486;9.046;2022-07-23T19:20:06;17.60;99.90
16838;DHT22;19510;54.486;9.046;2022-07-23T19:22:32;17.50;99.90
16838;DHT22;19510;54.486;9.046;2022-07-23T19:24:58;17.50;99.90
16838;DHT22;19510;54.486;9.046;2022-07-23T19:27:24;17.40;99.90
16838;DHT22;19510;54.486;9.046;2022-07-23T19:29:50;17.40;99.90
16838;DHT22;19510;54.486;9.046;2022-07-23T19:32:20;17.30;99.90
16838;DHT22;19510;54.486;9.046;2022-07-23T19:34:46;17.30;99.90
16838;DHT22;19510;54.486;9.046;2022-07-23T19:37:11;17.20;99.90
16838;DHT22;19510;54.486;9.046;2022-07-23T19:39:41;17.20;99.90
16838;DHT22;19510;54.486;9.046;2022-07-23T19:42:07;17.20;99.90
16838;DHT22;19510;54.486;9.046;2022-07-23T19:44:33;17.10;99.90
16838;DHT22;19510;54.486;9.046;2022-07-23T19:46:59;17.10;99.90
16838;DHT22;19510;54.486;9.046;2022-07-23T19:49:25;17.10;99.90
16838;DHT22;19510;54.486;9.046;2022-07-23T19:51:51;17.10;99.90
16838;DHT22;19510;54.486;9.046;2022-07-23T19:54:17;17.10;99.90
16838;DHT22;19510;54.486;9.046;2022-07-23T19:56:43;17.10;99.90
16838;DHT22;19510;54.486;9.046;2022-07-23T19:59:10;17.00;99.90
16838;DHT22;19510;54.486;9.046;2022-07-23T20:01:35;17.00;99.90
16838;DHT22;19510;54.486;9.046;2022-07-23T20:04:03;16.90;99.90
16838;DHT22;19510;54.486;9.046;2022-07-23T20:06:30;16.80;99.90
16838;DHT22;19510;54.486;9.046;2022-07-23T20:08:56;16.80;99.90
16838;DHT22;19510;54.486;9.046;2022-07-23T20:11:22;16.70;99.90
16838;DHT22;19510;54.486;9.046;2022-07-23T20:13:48;16.70;99.90
16838;DHT22;19510;54.486;9.046;2022-07-23T20:16:14;16.70;99.90
16838;DHT22;19510;54.486;9.046;2022-07-23T20:18:42;16.60;99.90
16838;DHT22;19510;54.486;9.046;2022-07-23T20:21:08;16.60;99.90
16838;DHT22;19510;54.486;9.046;2022-07-23T20:23:34;16.60;99.90
16838;DHT22;19510;54.486;9.046;2022-07-23T20:26:00;16.50;99.90
16838;DHT22;19510;54.486;9.046;2022-07-23T20:28:26;16.50;99.90
16838;DHT22;19510;54.486;9.046;2022-07-23T20:30:52;16.40;99.90
16838;DHT22;19510;54.486;9.046;2022-07-23T20:33:21;16.40;99.90
16838;DHT22;19510;54.486;9.046;2022-07-23T20:35:47;16.40;99.90
16838;DHT22;19510;54.486;9.046;2022-07-23T20:38:14;16.30;99.90
16838;DHT22;19510;54.486;9.046;2022-07-23T20:40:42;16.30;99.90
16838;DHT22;19510;54.486;9.046;2022-07-23T20:43:08;16.30;99.90
16838;DHT22;19510;54.486;9.046;2022-07-23T20:45:35;16.30;99.90
16838;DHT22;19510;54.486;9.046;2022-07-23T20:48:00;16.30;99.90
16838;DHT22;19510;54.486;9.046;2022-07-23T20:50:26;16.30;99.90
16838;DHT22;19510;54.486;9.046;2022-07-23T20:52:52;16.30;99.90
16838;DHT22;19510;54.486;9.046;2022-07-23T20:55:19;16.30;99.90
16838;DHT22;19510;54.486;9.046;2022-07-23T20:57:46;16.30;99.90
16838;DHT22;19510;54.486;9.046;2022-07-23T21:00:13;16.30;99.90
16838;DHT22;19510;54.486;9.046;2022-07-23T21:02:40;16.30;99.90
16838;DHT22;19510;54.486;9.046;2022-07-23T21:05:06;16.30;99.90
16838;DHT22;19510;54.486;9.046;2022-07-23T21:07:33;16.30;99.90
16838;DHT22;19510;54.486;9.046;2022-07-23T21:09:59;16.30;99.90
16838;DHT22;19510;54.486;9.046;2022-07-23T21:12:24;16.30;99.90
16838;DHT22;19510;54.486;9.046;2022-07-23T21:14:51;16.30;99.90
16838;DHT22;19510;54.486;9.046;2022-07-23T21:17:20;16.20;99.90
16838;DHT22;19510;54.486;9.046;2022-07-23T21:19:45;16.30;99.90
16838;DHT22;19510;54.486;9.046;2022-07-23T21:22:12;16.30;99.90
16838;DHT22;19510;54.486;9.046;2022-07-23T21:24:38;16.30;99.90
16838;DHT22;19510;54.486;9.046;2022-07-23T21:27:04;16.20;99.90
16838;DHT22;19510;54.486;9.046;2022-07-23T21:29:30;16.20;99.90
16838;DHT22;19510;54.486;9.046;2022-07-23T21:31:56;16.20;99.90
16838;DHT22;19510;54.486;9.046;2022-07-23T21:34:22;16.20;99.90
16838;DHT22;19510;54.486;9.046;2022-07-23T21:36:48;16.10;99.90
16838;DHT22;19510;54.486;9.046;2022-07-23T21:39:14;16.00;99.90
16838;DHT22;19510;54.486;9.046;2022-07-23T21:41:40;16.00;99.90
16838;DHT22;19510;54.486;9.046;2022-07-23T21:44:06;16.00;99.90
16838;DHT22;19510;54.486;9.046;2022-07-23T21:48:57;15.90;99.90
16838;DHT22;19510;54.486;9.046;2022-07-23T21:51:23;15.80;99.90
16838;DHT22;19510;54.486;9.046;2022-07-23T21:53:50;15.80;99.90
16838;DHT22;19510;54.486;9.046;2022-07-23T21:56:15;15.80;99.90
16838;DHT22;19510;54.486;9.046;2022-07-23T21:58:41;15.70;99.90
